SAAC/COC METAR and TAF weather

Enter ICAO airport designator
Station Type Date Time Source
SAAC METAR 2018/11/13 12:10 UTC NOAA

SAAC 131210Z 27005KT 1500 RA SCT005 OVC040 22/22 Q1004


Station Type Date Time Source
SAAC Decoded METAR 2018/11/13 12:10 UTC NOAA

Concordia Aerodrome, Argentina (SAAC) 31-18S 058-01W 38M
Nov 13, 2018 - 07:10 AM EST / 2018.11.13 1210 UTC
Wind: from the W (270 degrees) at 6 MPH (5 KT):0
Visibility: less than 1 mile:0
Sky conditions: overcast
Weather: rain
Temperature: 71 F (22 C)
Dew Point: 71 F (22 C)
Relative Humidity: 100%
Pressure (altimeter): 29.65 in. Hg (1004 hPa)
ob: SAAC 131210Z 27005KT 1500 RA SCT005 OVC040 22/22 Q1004
cycle: 12

Station Type Date Time Source
SAAC TAF UTC NOAA

Error!


Example: see airport list